Time;durP1;ratioP1;P1;durP2;ratioP2;P2;SDS_P1;SDS_P2;PMS_P1;PMS_P2;Temp;Humidity;BMP_temperature;BMP_pressure;BME280_temperature;BME280_humidity;BME280_pressure;Samples;Min_cycle;Max_cycle;Signal;HPM_P1;HPM_P2
2022/05/11 00:01:38;;;;;;;;;11.00;7.67;;;;;21.11;42.35;101193.69;4980299;28;45475;-47
2022/05/11 00:04:07;;;;;;;;;9.00;9.00;;;;;21.05;41.95;101213.16;4981794;28;45331;-45
2022/05/11 00:06:34;;;;;;;;;12.00;9.00;;;;;21.03;41.93;101205.19;4979355;28;45504;-47
2022/05/11 00:09:00;;;;;;;;;11.67;9.33;;;;;21.02;41.81;101197.22;4979912;28;45403;-48
2022/05/11 00:11:27;;;;;;;;;8.67;7.00;;;;;20.97;42.14;101206.56;4979632;28;45504;-47
2022/05/11 00:13:54;;;;;;;;;12.00;10.00;;;;;20.95;42.19;101200.44;4982135;28;45434;-47
2022/05/11 00:16:19;;;;;;;;;7.00;7.00;;;;;20.94;42.27;101200.59;4981872;28;45328;-46
2022/05/11 00:18:45;;;;;;;;;7.00;5.67;;;;;20.92;42.34;101203.41;4980554;28;66114;-45
2022/05/11 00:21:11;;;;;;;;;8.00;7.00;;;;;20.91;42.20;101200.84;4981175;28;61005;-46
2022/05/11 00:23:37;;;;;;;;;7.33;5.00;;;;;20.88;42.21;101204.66;4981448;28;45310;-47
2022/05/11 00:26:03;;;;;;;;;8.00;7.00;;;;;20.85;42.23;101196.00;4981851;28;45300;-46
2022/05/11 00:28:28;;;;;;;;;8.00;8.00;;;;;20.81;42.62;101190.00;4981140;28;45433;-46
2022/05/11 00:30:54;;;;;;;;;5.67;4.00;;;;;20.79;42.87;101194.66;4982076;28;66005;-46
2022/05/11 00:33:19;;;;;;;;;3.00;3.00;;;;;20.74;42.86;101186.09;4981096;28;56930;-46
2022/05/11 00:35:46;;;;;;;;;3.33;3.33;;;;;20.67;42.36;101181.19;4981181;28;45328;-46
2022/05/11 00:38:13;;;;;;;;;4.33;4.33;;;;;20.66;42.33;101171.38;4981358;28;45454;-46
2022/05/11 00:40:45;;;;;;;;;5.00;5.00;;;;;20.65;42.64;101174.22;4980996;28;45539;-45
2022/05/11 00:43:10;;;;;;;;;5.00;3.00;;;;;20.63;42.73;101159.97;4981783;28;45325;-45
2022/05/11 00:45:43;;;;;;;;;4.00;4.00;;;;;20.58;42.76;101165.78;4979689;28;45294;-48
2022/05/11 00:50:55;;;;;;;;;4.00;4.00;;;;;20.57;42.82;101155.09;4981434;28;45249;-47
2022/05/11 00:53:21;;;;;;;;;4.67;4.67;;;;;20.57;42.92;101153.28;4981344;28;45325;-47
2022/05/11 00:55:52;;;;;;;;;5.00;4.00;;;;;20.55;42.55;101152.53;4980906;28;45347;-45
2022/05/11 00:58:18;;;;;;;;;5.33;5.33;;;;;20.53;43.18;101145.56;4981496;28;46119;-47
2022/05/11 01:00:45;;;;;;;;;6.00;6.00;;;;;20.51;43.00;101143.00;4963494;28;45712;-46
2022/05/11 01:03:21;;;;;;;;;5.00;5.00;;;;;20.52;43.22;101141.13;4981035;28;45474;-46
2022/05/11 01:05:46;;;;;;;;;3.33;3.33;;;;;20.48;42.90;101138.72;4980546;28;45276;-46
2022/05/11 01:08:14;;;;;;;;;6.00;5.00;;;;;20.46;43.18;101135.28;4962126;28;46246;-47
2022/05/11 01:10:40;;;;;;;;;6.00;5.67;;;;;20.45;43.64;101130.84;4980492;28;45250;-46
2022/05/11 01:13:08;;;;;;;;;6.33;5.67;;;;;20.40;43.60;101125.03;4963674;28;45487;-46
2022/05/11 01:15:34;;;;;;;;;4.00;4.00;;;;;20.34;43.65;101130.94;4980889;28;45551;-46
2022/05/11 01:18:05;;;;;;;;;6.67;6.67;;;;;20.34;43.90;101120.16;4980528;28;45972;-46
2022/05/11 01:20:33;;;;;;;;;4.67;4.67;;;;;20.33;44.00;101123.84;4963413;28;45453;-45
2022/05/11 01:23:07;;;;;;;;;4.33;4.33;;;;;20.30;43.85;101108.75;4963634;28;45318;-45
2022/05/11 01:25:32;;;;;;;;;6.67;5.00;;;;;20.26;43.87;101110.00;4980540;28;45490;-45
2022/05/11 01:28:12;;;;;;;;;11.00;9.00;;;;;20.23;43.96;101114.81;4979788;28;62842;-46
2022/05/11 01:30:40;;;;;;;;;6.33;6.33;;;;;20.25;43.84;101111.00;4985644;28;45508;-45
2022/05/11 01:33:06;;;;;;;;;4.33;4.33;;;;;20.23;43.83;101110.25;4980975;28;45584;-46
2022/05/11 01:35:37;;;;;;;;;6.67;4.67;;;;;20.20;44.56;101110.53;4980309;28;45221;-46
2022/05/11 01:38:32;;;;;;;;;6.00;6.00;;;;;20.18;44.27;101112.53;4980762;28;46045;-46
2022/05/11 01:40:58;;;;;;;;;6.00;4.00;;;;;20.19;43.92;101103.41;4963293;28;45282;-47
2022/05/11 01:43:27;;;;;;;;;4.00;4.00;;;;;20.19;44.21;101114.22;4980311;28;57315;-46
2022/05/11 01:45:53;;;;;;;;;5.00;4.67;;;;;20.18;43.91;101109.81;4979975;28;45289;-45
2022/05/11 01:48:18;;;;;;;;;6.00;5.00;;;;;20.18;44.35;101112.53;4979679;28;45359;-47
2022/05/11 01:50:44;;;;;;;;;4.33;4.33;;;;;20.17;44.13;101108.09;4978962;28;65206;-46
2022/05/11 01:53:10;;;;;;;;;4.00;3.67;;;;;20.13;44.17;101109.34;4980494;28;45464;-47
2022/05/11 01:55:35;;;;;;;;;5.00;3.67;;;;;20.10;44.53;101106.91;4979931;28;45678;-46
2022/05/11 01:58:06;;;;;;;;;3.67;3.67;;;;;20.10;44.37;101109.59;4973665;28;66801;-46
2022/05/11 02:00:32;;;;;;;;;6.00;4.00;;;;;20.10;44.56;101101.50;4978533;28;45290;-46
2022/05/11 02:02:58;;;;;;;;;3.67;3.67;;;;;20.11;44.32;101112.16;4980203;28;45471;-46
2022/05/11 02:08:08;;;;;;;;;3.00;3.00;;;;;20.13;44.36;101098.56;4980109;28;45756;-46
2022/05/11 02:10:34;;;;;;;;;5.00;5.00;;;;;20.15;44.38;101102.84;4979578;28;45406;-46
2022/05/11 02:12:59;;;;;;;;;6.00;5.33;;;;;20.14;44.82;101095.72;4979130;28;45330;-46
2022/05/11 02:15:26;;;;;;;;;4.00;4.00;;;;;20.15;44.51;101092.03;4971318;28;45501;-45
2022/05/11 02:17:51;;;;;;;;;5.00;4.33;;;;;20.14;44.70;101094.84;4979202;28;46224;-45
2022/05/11 02:20:18;;;;;;;;;5.00;4.33;;;;;20.12;44.86;101096.84;4978970;28;67663;-46
2022/05/11 02:22:44;;;;;;;;;5.00;5.00;;;;;20.12;44.62;101097.69;4979436;28;45739;-46
2022/05/11 02:25:11;;;;;;;;;4.67;3.00;;;;;20.10;44.65;101093.41;4979821;28;45578;-45
2022/05/11 02:27:36;;;;;;;;;4.33;4.33;;;;;20.09;44.65;101095.25;4951928;28;45590;-45
2022/05/11 02:30:03;;;;;;;;;7.00;7.00;;;;;20.08;44.50;101087.28;4983718;28;45164;-46
2022/05/11 02:32:29;;;;;;;;;4.00;4.00;;;;;20.02;44.80;101085.13;4980860;28;45367;-45
2022/05/11 02:35:12;;;;;;;;;4.00;4.00;;;;;20.00;44.71;101087.94;4979319;28;60360;-46
2022/05/11 02:37:50;;;;;;;;;4.67;3.33;;;;;19.99;44.83;101086.22;4978044;28;45307;-45
2022/05/11 02:40:19;;;;;;;;;5.00;4.67;;;;;19.97;44.81;101090.91;4978915;28;45496;-45
2022/05/11 02:42:45;;;;;;;;;5.67;4.00;;;;;19.94;44.72;101080.38;4979732;28;45362;-46
2022/05/11 02:45:11;;;;;;;;;3.50;3.50;;;;;19.94;44.56;101083.06;4979515;28;45249;-45
2022/05/11 02:47:37;;;;;;;;;6.00;5.33;;;;;19.93;44.75;101075.94;4979054;28;45318;-46
2022/05/11 02:50:05;;;;;;;;;7.00;5.67;;;;;19.93;44.97;101075.94;4979574;28;45275;-45
2022/05/11 02:52:31;;;;;;;;;3.00;3.00;;;;;19.92;45.19;101074.22;4979400;28;45609;-45
2022/05/11 02:54:56;;;;;;;;;7.33;3.67;;;;;19.90;45.04;101073.53;4979561;28;45489;-46
2022/05/11 02:57:22;;;;;;;;;3.00;3.00;;;;;19.88;45.21;101067.38;4978709;28;68830;-46
2022/05/11 02:59:49;;;;;;;;;6.33;5.00;;;;;19.86;45.46;101072.94;4978634;28;64224;-45
2022/05/11 03:02:15;;;;;;;;;7.33;6.00;;;;;19.84;45.36;101077.59;4979668;28;45322;-47
2022/05/11 03:04:40;;;;;;;;;3.33;3.33;;;;;19.81;44.96;101073.31;4960905;28;45290;-46
2022/05/11 03:07:06;;;;;;;;;7.00;7.00;;;;;19.81;45.04;101075.13;4979307;28;45378;-45
2022/05/11 03:09:31;;;;;;;;;5.67;4.33;;;;;19.78;45.48;101075.41;4978517;28;45397;-46
2022/05/11 03:11:56;;;;;;;;;4.00;4.00;;;;;19.76;45.14;101077.34;4978929;28;60911;-45
2022/05/11 03:14:22;;;;;;;;;4.33;3.67;;;;;19.72;45.48;101081.31;4979442;28;45300;-46
2022/05/11 03:16:48;;;;;;;;;5.00;4.00;;;;;19.69;45.31;101074.31;4978383;28;45279;-45
2022/05/11 03:19:13;;;;;;;;;4.33;3.33;;;;;19.65;45.50;101071.03;4978518;28;63794;-45
2022/05/11 03:21:38;;;;;;;;;9.33;6.00;;;;;19.63;45.71;101064.91;4979152;28;45240;-45
2022/05/11 03:24:04;;;;;;;;;5.33;5.00;;;;;19.61;45.61;101061.47;4978412;28;45314;-46
2022/05/11 03:26:29;;;;;;;;;5.00;4.00;;;;;19.59;45.63;101074.22;4978953;28;45709;-45
2022/05/11 03:28:56;;;;;;;;;4.67;4.33;;;;;19.57;45.73;101065.44;4978444;28;64126;-45
2022/05/11 03:31:22;;;;;;;;;5.33;5.33;;;;;19.55;45.78;101067.38;4985058;28;45334;-46
2022/05/11 03:36:31;;;;;;;;;12.00;6.00;;;;;19.53;45.77;101057.72;4982330;28;45448;-46
2022/05/11 03:38:56;;;;;;;;;9.33;9.33;;;;;19.53;46.04;101060.41;4982338;28;45338;-45
2022/05/11 03:41:22;;;;;;;;;9.33;6.33;;;;;19.52;46.03;101064.94;4982673;28;48242;-45
2022/05/11 03:43:47;;;;;;;;;8.00;5.67;;;;;19.50;46.56;101054.28;4982142;28;45470;-46
2022/05/11 03:46:13;;;;;;;;;8.00;6.67;;;;;19.50;46.37;101057.00;4981998;28;46141;-45
2022/05/11 03:48:38;;;;;;;;;9.00;8.00;;;;;19.51;46.72;101057.84;4980112;28;60038;-45
2022/05/11 03:51:05;;;;;;;;;10.67;9.00;;;;;19.49;46.81;101062.53;4982892;28;45283;-47
2022/05/11 03:53:33;;;;;;;;;14.33;12.00;;;;;19.46;46.72;101065.47;4981740;28;45243;-46
2022/05/11 03:55:58;;;;;;;;;9.33;9.33;;;;;19.43;47.03;101063.88;4979771;28;47079;-45
2022/05/11 03:58:24;;;;;;;;;10.00;10.00;;;;;19.42;46.75;101069.41;4982244;28;45468;-46
2022/05/11 04:00:49;;;;;;;;;11.00;10.33;;;;;19.40;46.95;101065.97;4982103;28;45610;-48
2022/05/11 04:03:15;;;;;;;;;15.00;12.67;;;;;19.39;47.12;101066.97;4981321;28;61366;-45
2022/05/11 04:05:41;;;;;;;;;11.33;10.00;;;;;19.37;47.25;101074.31;4981418;28;45447;-45
2022/05/11 04:08:06;;;;;;;;;11.00;10.33;;;;;19.34;47.26;101070.88;4981259;28;63483;-46
2022/05/11 04:10:32;;;;;;;;;12.67;10.00;;;;;19.32;47.19;101072.00;4981859;28;45382;-45
2022/05/11 04:12:59;;;;;;;;;9.33;9.33;;;;;19.29;47.34;101067.72;4982043;28;45483;-45
2022/05/11 04:15:25;;;;;;;;;10.33;9.33;;;;;19.26;47.32;101067.13;4982184;28;45373;-45
2022/05/11 04:17:50;;;;;;;;;13.00;11.67;;;;;19.20;47.21;101073.88;4963533;28;45363;-46
2022/05/11 04:20:17;;;;;;;;;11.33;10.33;;;;;19.15;47.66;101065.31;4981331;28;61748;-46
2022/05/11 04:22:43;;;;;;;;;8.33;7.67;;;;;19.12;47.91;101069.09;4980625;28;45328;-45
2022/05/11 04:25:10;;;;;;;;;12.00;10.33;;;;;19.14;47.53;101074.41;4981792;28;46309;-47
2022/05/11 04:27:36;;;;;;;;;12.33;10.33;;;;;19.11;47.86;101072.81;4981184;28;45419;-46
2022/05/11 04:30:03;;;;;;;;;9.00;9.00;;;;;19.12;47.85;101065.56;4985854;28;45329;-45
2022/05/11 04:32:29;;;;;;;;;10.67;10.00;;;;;19.11;47.99;101077.31;4982277;28;45366;-46
2022/05/11 04:34:54;;;;;;;;;13.67;12.33;;;;;19.08;47.73;101080.28;4981413;28;46882;-47
2022/05/11 04:37:19;;;;;;;;;6.33;6.33;;;;;19.05;48.02;101073.31;4980942;28;63442;-46
2022/05/11 04:39:45;;;;;;;;;10.33;10.33;;;;;19.00;48.10;101073.66;4981434;28;45318;-46
2022/05/11 04:42:14;;;;;;;;;16.33;13.67;;;;;18.96;48.17;101074.91;4981480;28;45164;-46
2022/05/11 04:44:39;;;;;;;;;14.00;12.67;;;;;18.95;48.55;101072.34;4981148;28;46138;-45
2022/05/11 04:47:07;;;;;;;;;10.67;10.33;;;;;18.94;48.54;101067.91;4981170;28;45386;-46
2022/05/11 04:49:33;;;;;;;;;11.00;10.00;;;;;18.95;48.26;101069.63;4980274;28;45312;-46
2022/05/11 04:52:07;;;;;;;;;13.67;12.33;;;;;18.93;48.50;101075.16;4973977;28;45433;-46
2022/05/11 04:54:35;;;;;;;;;11.67;9.33;;;;;18.91;48.72;101065.47;4974826;28;45800;-45
2022/05/11 04:57:00;;;;;;;;;10.33;10.33;;;;;18.89;48.86;101065.63;4979976;28;45433;-46
2022/05/11 04:59:25;;;;;;;;;14.00;12.00;;;;;18.87;48.72;101070.22;4980576;28;59572;-46
2022/05/11 05:01:51;;;;;;;;;16.00;11.00;;;;;18.86;48.75;101068.50;4979984;28;56101;-47
2022/05/11 05:04:19;;;;;;;;;19.33;11.67;;;;;18.87;48.92;101066.69;4980542;28;46355;-48
2022/05/11 05:06:45;;;;;;;;;12.33;11.00;;;;;18.87;48.63;101064.00;4980352;28;45400;-47
2022/05/11 05:09:10;;;;;;;;;12.33;10.67;;;;;18.89;48.99;101071.00;4980473;28;57670;-47
2022/05/11 05:11:35;;;;;;;;;13.67;11.00;;;;;18.90;48.76;101067.31;4980538;28;45247;-46
2022/05/11 05:14:01;;;;;;;;;13.33;12.00;;;;;18.89;48.74;101065.63;4980456;28;65077;-48
2022/05/11 05:16:26;;;;;;;;;15.00;12.00;;;;;18.84;48.76;101067.78;4980727;28;45324;-45
2022/05/11 05:18:52;;;;;;;;;11.67;10.33;;;;;18.78;48.71;101066.44;4980680;28;45385;-46
2022/05/11 05:21:18;;;;;;;;;11.00;11.00;;;;;18.75;48.54;101068.53;4980250;28;45313;-46
2022/05/11 05:23:43;;;;;;;;;13.67;13.33;;;;;18.68;48.84;101071.72;4979333;28;65843;-47
2022/05/11 05:26:09;;;;;;;;;16.67;11.00;;;;;18.70;49.10;101070.75;4979715;28;59408;-46
2022/05/11 05:31:21;;;;;;;;;14.67;12.67;;;;;18.76;49.25;101070.22;4980731;28;45473;-46
2022/05/11 05:33:47;;;;;;;;;16.00;13.33;;;;;18.75;49.23;101069.38;4966413;28;46227;-46
2022/05/11 05:36:13;;;;;;;;;13.33;13.00;;;;;18.75;49.42;101074.78;4979446;28;45381;-47
2022/05/11 05:38:39;;;;;;;;;13.67;11.00;;;;;18.77;49.42;101078.22;4976928;28;45621;-47
2022/05/11 05:41:08;;;;;;;;;11.67;11.67;;;;;18.78;49.44;101076.38;4974544;28;45546;-46
2022/05/11 05:43:34;;;;;;;;;14.67;12.67;;;;;18.77;48.99;101072.81;4976641;28;46113;-46
2022/05/11 05:46:00;;;;;;;;;14.00;13.33;;;;;18.80;49.19;101083.34;4980101;28;45396;-45
2022/05/11 05:48:25;;;;;;;;;11.67;10.67;;;;;18.79;49.39;101078.94;4980546;28;45320;-47
2022/05/11 05:50:51;;;;;;;;;13.00;12.33;;;;;18.81;49.06;101079.66;4980048;28;45536;-46
2022/05/11 05:53:20;;;;;;;;;16.33;13.00;;;;;18.82;49.28;101075.97;4980461;28;45289;-46
2022/05/11 05:55:48;;;;;;;;;11.00;11.00;;;;;18.82;49.23;101073.28;4976757;28;45534;-46
2022/05/11 05:58:13;;;;;;;;;10.67;10.33;;;;;18.85;49.39;101080.25;4976473;28;45505;-45
2022/05/11 06:00:39;;;;;;;;;14.00;13.00;;;;;18.87;49.27;101078.31;4979783;28;45446;-45
2022/05/11 06:03:04;;;;;;;;;13.00;10.00;;;;;18.91;49.56;101078.97;4977781;28;67361;-47
2022/05/11 06:05:29;;;;;;;;;15.67;13.33;;;;;18.94;49.04;101086.78;4979342;28;45440;-46
2022/05/11 06:07:56;;;;;;;;;14.67;12.00;;;;;18.93;49.45;101085.94;4973742;28;45442;-45
2022/05/11 06:10:25;;;;;;;;;13.00;11.00;;;;;18.95;49.48;101083.97;4979964;28;45446;-45
2022/05/11 06:12:51;;;;;;;;;12.67;10.67;;;;;19.04;48.97;101076.13;4978989;28;46302;-44
2022/05/11 06:15:16;;;;;;;;;13.33;11.00;;;;;19.09;49.64;101085.53;4979752;28;45454;-45
2022/05/11 06:17:42;;;;;;;;;17.00;9.67;;;;;19.16;49.42;101084.06;4978684;28;61151;-44
2022/05/11 06:20:09;;;;;;;;;12.33;9.67;;;;;19.23;49.21;101078.16;4978487;28;58964;-44
2022/05/11 06:22:35;;;;;;;;;14.00;13.00;;;;;19.31;49.20;101078.41;4977102;28;46257;-44
2022/05/11 06:25:01;;;;;;;;;10.00;10.00;;;;;19.40;49.20;101077.63;4979560;28;45322;-45
2022/05/11 06:27:26;;;;;;;;;13.67;11.33;;;;;19.51;49.09;101076.72;4979902;28;45443;-44
2022/05/11 06:29:57;;;;;;;;;12.33;11.00;;;;;19.62;49.14;101074.00;4978904;28;45256;-44
2022/05/11 06:32:22;;;;;;;;;10.00;10.00;;;;;19.76;48.88;101082.75;4979559;28;46382;-47
2022/05/11 06:34:48;;;;;;;;;14.33;12.33;;;;;19.89;48.42;101083.44;4979291;28;45462;-44
2022/05/11 06:37:14;;;;;;;;;13.00;12.00;;;;;20.05;48.12;101079.44;4979904;28;45484;-45
2022/05/11 06:39:40;;;;;;;;;14.67;12.00;;;;;20.21;48.03;101082.53;4979428;28;45402;-44
2022/05/11 06:42:07;;;;;;;;;18.00;14.33;;;;;20.38;47.61;101080.22;4979244;28;58503;-44
2022/05/11 06:44:33;;;;;;;;;19.33;15.00;;;;;20.57;47.19;101079.44;4978930;28;45405;-44
2022/05/11 06:46:58;;;;;;;;;13.33;10.67;;;;;20.76;47.10;101081.41;4979643;28;45219;-49
2022/05/11 06:49:23;;;;;;;;;17.67;11.00;;;;;20.90;46.63;101081.03;4978708;28;58088;-44
2022/05/11 06:51:49;;;;;;;;;15.33;12.33;;;;;21.09;46.87;101076.66;4975589;28;49413;-45
2022/05/11 06:59:43;;;;;;;;;13.33;12.33;;;;;21.69;45.81;101082.03;4978827;28;45517;-45
2022/05/11 07:02:08;;;;;;;;;14.00;13.00;;;;;21.86;45.53;101076.91;4978347;28;68867;-45
2022/05/11 07:04:35;;;;;;;;;12.33;11.00;;;;;22.04;44.95;101080.59;4977366;28;62950;-46
2022/05/11 07:07:02;;;;;;;;;11.33;11.33;;;;;22.22;44.23;101080.69;4976476;28;45417;-46
2022/05/11 07:09:31;;;;;;;;;13.00;11.33;;;;;22.36;44.54;101074.00;4978447;28;45433;-46
2022/05/11 07:14:41;;;;;;;;;14.00;12.33;;;;;22.74;43.62;101071.28;4977498;28;45223;-47
2022/05/11 07:17:07;;;;;;;;;13.33;12.33;;;;;22.92;43.03;101074.91;4978466;28;45549;-45
2022/05/11 07:19:33;;;;;;;;;13.33;13.00;;;;;23.10;43.00;101065.94;4976588;28;45308;-46
2022/05/11 07:21:59;;;;;;;;;14.00;11.33;;;;;23.27;42.54;101067.00;4977609;28;46324;-46
2022/05/11 07:24:24;;;;;;;;;9.00;9.00;;;;;23.43;42.18;101066.31;4979387;28;45507;-45
2022/05/11 07:26:50;;;;;;;;;15.67;14.33;;;;;23.66;42.14;101061.25;4974659;28;55797;-45
2022/05/11 07:29:15;;;;;;;;;15.67;13.33;;;;;23.87;41.33;101062.78;4975077;28;45377;-47
2022/05/11 07:31:41;;;;;;;;;11.33;11.00;;;;;24.04;41.34;101069.22;4976488;28;46117;-46
2022/05/11 07:34:07;;;;;;;;;10.67;10.67;;;;;24.16;40.92;101069.81;4976832;28;45387;-44
2022/05/11 07:36:32;;;;;;;;;7.33;7.33;;;;;24.21;40.32;101071.06;4973706;28;45628;-46
2022/05/11 07:38:58;;;;;;;;;9.00;8.00;;;;;24.41;40.28;101070.84;4976996;28;45481;-45
2022/05/11 07:41:24;;;;;;;;;13.33;12.67;;;;;24.57;39.98;101065.47;4985610;28;46356;-45
2022/05/11 07:43:49;;;;;;;;;13.00;12.33;;;;;24.76;39.33;101064.41;4975779;28;45452;-46
2022/05/11 07:46:15;;;;;;;;;13.00;11.67;;;;;24.96;38.93;101058.72;4975643;28;45485;-45
2022/05/11 07:48:40;;;;;;;;;10.00;10.00;;;;;25.15;39.03;101062.16;4977584;28;45416;-46
2022/05/11 07:51:06;;;;;;;;;11.00;10.00;;;;;25.32;37.94;101068.47;4960645;28;47124;-48
2022/05/11 07:53:32;;;;;;;;;8.33;8.33;;;;;25.38;37.29;101070.56;4977423;28;60596;-46
2022/05/11 08:01:26;;;;;;;;;11.67;8.00;;;;;25.93;36.84;101074.53;4978310;28;45803;-45
2022/05/11 08:03:51;;;;;;;;;9.33;9.33;;;;;26.13;36.34;101077.78;4976999;28;63356;-46
2022/05/11 08:06:18;;;;;;;;;9.67;9.67;;;;;26.29;36.06;101070.59;4978071;28;45262;-49
2022/05/11 08:08:44;;;;;;;;;7.67;7.67;;;;;26.44;35.93;101079.75;4977673;28;45476;-45
2022/05/11 08:11:09;;;;;;;;;8.00;7.33;;;;;26.68;36.30;101072.53;4971112;28;45642;-45
2022/05/11 08:13:35;;;;;;;;;10.33;8.00;;;;;27.04;35.38;101072.91;4968433;28;63071;-47
2022/05/11 08:16:00;;;;;;;;;9.67;9.67;;;;;27.53;35.03;101069.03;4978981;28;45428;-45
2022/05/11 08:18:26;;;;;;;;;11.33;8.33;;;;;28.06;34.46;101060.06;4978492;28;45532;-46
2022/05/11 08:20:51;;;;;;;;;6.00;6.00;;;;;28.57;34.27;101055.78;4980355;28;45333;-46
2022/05/11 08:23:17;;;;;;;;;5.67;5.67;;;;;29.05;32.76;101056.19;4975277;28;63727;-47
2022/05/11 08:25:44;;;;;;;;;3.67;3.67;;;;;29.52;31.69;101060.28;4981225;28;45353;-45
2022/05/11 08:28:13;;;;;;;;;6.00;5.00;;;;;29.99;31.18;101062.63;4981109;28;45451;-46
2022/05/11 08:33:23;;;;;;;;;8.33;6.33;;;;;30.85;28.81;101062.31;4981413;28;45457;-47
2022/05/11 08:35:52;;;;;;;;;5.00;5.00;;;;;31.02;29.43;101065.53;4980989;28;45465;-48
2022/05/11 08:38:19;;;;;;;;;5.33;4.00;;;;;31.15;28.27;101069.44;4981641;28;45350;-45
2022/05/11 08:41:06;;;;;;;;;6.67;4.33;;;;;31.33;28.50;101061.44;4968991;28;45370;-46
2022/05/11 08:43:33;;;;;;;;;4.00;4.00;;;;;31.39;26.86;101058.91;4959963;28;45342;-46
2022/05/11 08:46:11;;;;;;;;;3.67;3.67;;;;;31.41;27.06;101056.81;4963545;28;45325;-46
2022/05/11 08:48:50;;;;;;;;;3.67;3.67;;;;;31.56;25.89;101060.19;4963025;28;45369;-46
2022/05/11 08:51:24;;;;;;;;;5.00;3.00;;;;;31.53;26.32;101062.53;4981229;28;45302;-45
2022/05/11 08:53:59;;;;;;;;;3.50;3.25;;;;;31.21;26.83;101071.34;4960153;28;45330;-44
2022/05/11 08:56:27;;;;;;;;;3.50;3.50;;;;;31.06;26.59;101074.25;4959650;28;45672;-45
2022/05/11 08:58:54;;;;;;;;;4.50;3.00;;;;;31.06;26.26;101065.19;4959153;28;45449;-46
2022/05/11 09:01:29;;;;;;;;;5.25;3.50;;;;;31.02;25.97;101065.53;4979825;28;47241;-46
2022/05/11 09:03:56;;;;;;;;;4.67;4.67;;;;;31.10;25.99;101067.28;4960611;28;45983;-45
2022/05/11 09:06:28;;;;;;;;;10.67;10.67;;;;;31.25;26.90;101061.63;4962956;28;45417;-45
2022/05/11 09:08:59;;;;;;;;;4.25;4.25;;;;;31.37;26.21;101061.88;4959706;28;45298;-45
2022/05/11 09:11:27;;;;;;;;;3.50;3.50;;;;;31.51;26.18;101055.34;4977445;28;47362;-45
2022/05/11 09:13:52;;;;;;;;;3.75;3.75;;;;;31.51;25.18;101058.09;4978834;28;45278;-45
2022/05/11 09:16:21;;;;;;;;;4.00;4.00;;;;;31.45;25.36;101063.56;4977632;28;52318;-48
2022/05/11 09:18:46;;;;;;;;;4.00;4.00;;;;;31.32;25.75;101053.41;4971291;28;45333;-48
2022/05/11 09:21:24;;;;;;;;;3.50;3.50;;;;;31.36;25.44;101056.59;4979668;28;46088;-47
2022/05/11 09:24:18;;;;;;;;;5.50;4.00;;;;;31.46;25.86;101063.38;4974869;28;45614;-45
2022/05/11 09:26:46;;;;;;;;;3.25;3.25;;;;;31.57;25.82;101053.63;4971953;28;45514;-46
2022/05/11 09:29:21;;;;;;;;;4.25;4.25;;;;;31.73;25.38;101068.91;4979581;28;45500;-46
2022/05/11 09:31:49;;;;;;;;;2.75;2.50;;;;;31.87;25.34;101057.94;4962389;28;46230;-45
2022/05/11 09:34:36;;;;;;;;;4.50;4.50;;;;;32.03;25.65;101057.47;4969556;28;46043;-48
2022/05/11 09:37:23;;;;;;;;;3.50;3.50;;;;;32.17;25.77;101052.84;4975130;28;45582;-46
2022/05/11 09:40:03;;;;;;;;;3.00;3.00;;;;;32.27;24.51;101052.41;4971320;28;45449;-45
2022/05/11 09:42:30;;;;;;;;;3.25;3.25;;;;;32.20;24.75;101054.31;4972642;28;47170;-45
2022/05/11 09:44:56;;;;;;;;;3.00;2.00;;;;;32.21;24.20;101047.75;4980167;28;45441;-47
2022/05/11 09:47:21;;;;;;;;;1.00;1.00;;;;;32.28;24.72;101045.81;4972725;28;45508;-45
2022/05/11 09:49:47;;;;;;;;;4.00;3.67;;;;;32.37;23.99;101052.78;4973138;28;45444;-45
2022/05/11 09:52:27;;;;;;;;;6.25;4.75;;;;;32.48;24.14;101043.88;4979518;28;46975;-47
2022/05/11 09:54:52;;;;;;;;;12.00;9.67;;;;;32.57;24.47;101044.47;4978995;28;45458;-46
2022/05/11 09:57:20;;;;;;;;;2.50;2.50;;;;;32.73;24.42;101042.34;4969783;28;46256;-45
2022/05/11 09:59:50;;;;;;;;;3.00;2.00;;;;;32.94;23.99;101035.66;4976032;28;45306;-45
2022/05/11 10:02:35;;;;;;;;;3.50;3.50;;;;;33.05;24.58;101037.72;4979643;28;46227;-45
2022/05/11 10:05:08;;;;;;;;;2.50;2.50;;;;;33.03;24.08;101039.84;4975701;28;45228;-45
2022/05/11 10:07:47;;;;;;;;;2.00;2.00;;;;;32.84;23.93;101040.81;4979883;28;45378;-46
2022/05/11 10:10:26;;;;;;;;;2.00;2.00;;;;;32.90;24.00;101038.00;4962622;28;45295;-45
2022/05/11 10:12:55;;;;;;;;;4.25;3.25;;;;;32.96;23.44;101044.56;4962083;28;46084;-45
2022/05/11 10:24:17;;;;;;;;;2.50;2.50;;;;;33.50;23.57;101044.25;4960313;28;45429;-45
2022/05/11 10:26:58;;;;;;;;;4.00;4.00;;;;;33.69;23.21;101043.25;4975353;28;45315;-45
2022/05/11 10:29:29;;;;;;;;;6.00;5.00;;;;;33.72;22.96;101045.53;4979451;28;45412;-45
2022/05/11 10:32:08;;;;;;;;;2.75;2.75;;;;;33.82;23.11;101039.56;4984964;28;45457;-46
2022/05/11 10:35:11;;;;;;;;;2.50;2.50;;;;;34.03;22.98;101045.72;4976943;28;46323;-47
2022/05/11 10:37:52;;;;;;;;;2.00;2.00;;;;;34.16;22.56;101029.06;4913599;28;45420;-45
2022/05/11 10:40:31;;;;;;;;;4.00;2.50;;;;;34.37;23.17;101035.22;4979130;28;45588;-46
2022/05/11 10:43:36;;;;;;;;;4.25;4.25;;;;;34.76;22.79;101025.59;4960504;28;45563;-45
2022/05/11 10:46:11;;;;;;;;;4.00;2.00;;;;;35.12;22.25;101023.00;4956775;28;46387;-45
2022/05/11 10:48:56;;;;;;;;;2.25;2.25;;;;;35.41;21.84;101014.94;4978155;28;45386;-44
2022/05/11 10:51:33;;;;;;;;;2.25;2.25;;;;;35.70;21.65;101013.19;4979207;28;45352;-49
2022/05/11 10:54:10;;;;;;;;;3.00;3.00;;;;;36.16;21.47;101004.28;4979014;28;45304;-47
2022/05/11 10:57:04;;;;;;;;;1.25;1.25;;;;;36.90;20.95;101014.72;4975667;28;46248;-46
2022/05/11 10:59:38;;;;;;;;;0.25;0.25;;;;;37.46;20.48;101001.06;4974940;28;45349;-50
2022/05/11 11:02:41;;;;;;;;;2.67;2.67;;;;;38.00;19.20;101005.22;4981595;28;45456;-45
2022/05/11 11:05:06;;;;;;;;;3.33;2.67;;;;;38.52;19.82;101007.59;4975797;28;45492;-44
2022/05/11 11:07:47;;;;;;;;;5.00;3.00;;;;;38.98;19.36;101004.53;4974701;28;45333;-45
2022/05/11 11:10:26;;;;;;;;;2.33;2.33;;;;;39.43;18.85;101010.81;4961200;28;45491;-45
2022/05/11 11:13:13;;;;;;;;;5.00;5.00;;;;;39.54;18.38;101006.16;4959797;28;45585;-47
2022/05/11 11:15:42;;;;;;;;;3.33;3.33;;;;;39.90;18.20;100991.69;4977150;28;45547;-46
2022/05/11 11:18:11;;;;;;;;;5.50;5.50;;;;;40.36;18.22;100994.72;4977872;28;47087;-45
2022/05/11 11:20:38;;;;;;;;;3.50;3.50;;;;;40.99;17.60;100991.03;4960540;28;45480;-45
2022/05/11 11:23:08;;;;;;;;;4.00;4.00;;;;;41.39;17.76;100994.97;4960899;28;45642;-45
2022/05/11 11:25:58;;;;;;;;;3.00;3.00;;;;;41.17;17.18;100998.88;4960610;28;45477;-46
2022/05/11 11:28:55;;;;;;;;;2.00;2.00;;;;;41.21;17.30;100993.53;4975450;28;46130;-47
2022/05/11 11:31:24;;;;;;;;;4.75;4.00;;;;;41.39;17.52;100988.53;4975226;28;45441;-46
2022/05/11 11:33:54;;;;;;;;;5.25;3.00;;;;;41.41;17.08;101003.06;4975211;28;45463;-48
2022/05/11 11:36:28;;;;;;;;;2.00;1.75;;;;;41.23;17.00;100991.31;4978563;28;45531;-49
2022/05/11 11:38:57;;;;;;;;;2.25;2.25;;;;;41.21;16.80;100987.16;4976155;28;45457;-47
2022/05/11 11:41:41;;;;;;;;;2.25;2.25;;;;;41.60;16.51;100983.78;4974115;28;45640;-45
2022/05/11 11:44:20;;;;;;;;;3.25;2.75;;;;;41.79;17.00;100986.84;4978862;28;45573;-45
2022/05/11 11:46:46;;;;;;;;;4.25;3.00;;;;;41.88;16.36;100985.16;4975095;28;45631;-48
2022/05/11 11:49:27;;;;;;;;;6.00;2.67;;;;;41.94;16.61;100980.41;4977996;28;47146;-46
2022/05/11 11:51:58;;;;;;;;;3.75;2.00;;;;;41.83;16.50;100994.38;4978727;28;45291;-45
2022/05/11 11:54:36;;;;;;;;;2.00;0.50;;;;;41.24;16.24;100978.22;4982213;28;45580;-46
2022/05/11 11:57:03;;;;;;;;;1.00;1.00;;;;;40.20;16.96;100974.31;4982547;28;45516;-46
2022/05/11 11:59:28;;;;;;;;;2.00;1.00;;;;;39.20;17.62;100979.47;4979972;28;45465;-49
2022/05/11 12:02:14;;;;;;;;;1.75;1.75;;;;;38.41;18.08;100980.81;4980667;28;45640;-46
2022/05/11 12:05:03;;;;;;;;;2.50;2.25;;;;;37.63;18.96;100978.03;4970931;28;45679;-46